Time;durP1;ratioP1;P1;durP2;ratioP2;P2;SDS_P1;SDS_P2;PMS_P1;PMS_P2;Temp;Humidity;BMP_temperature;BMP_pressure;BME280_temperature;BME280_humidity;BME280_pressure;Samples;Min_cycle;Max_cycle;Signal;HPM_P1;HPM_P2
2022/01/18 00:01:52;;;;;;;;;60.75;46.25;;;;;;;;5075692;27;46268;-73
2022/01/18 00:04:17;;;;;;;;;61.00;45.00;;;;;;;;5076524;27;45355;-73
2022/01/18 00:06:47;;;;;;;;;60.00;46.75;;;;;;;;5074165;27;45429;-73
2022/01/18 00:09:12;;;;;;;;;63.00;47.00;;;;;;;;5074767;28;45553;-73
2022/01/18 00:11:44;;;;;;;;;58.00;44.25;;;;;;;;5075448;27;46167;-74
2022/01/18 00:14:22;;;;;;;;;60.00;46.00;;;;;;;;5072889;28;45467;-73
2022/01/18 00:17:03;;;;;;;;;59.25;45.50;;;;;;;;5071675;28;45641;-73
2022/01/18 00:19:29;;;;;;;;;57.50;41.75;;;;;;;;5071976;28;45506;-74
2022/01/18 00:24:25;;;;;;;;;56.25;44.75;;;;;;;;5072108;28;45433;-73
2022/01/18 00:26:50;;;;;;;;;60.25;46.75;;;;;;;;5075105;28;45449;-73
2022/01/18 00:29:18;;;;;;;;;54.00;44.25;;;;;;;;5072922;27;45602;-73
2022/01/18 00:32:10;;;;;;;;;56.50;44.25;;;;;;;;5071369;28;46219;-74
2022/01/18 00:34:35;;;;;;;;;61.25;44.25;;;;;;;;5073163;28;45289;-73
2022/01/18 00:37:52;;;;;;;;;57.25;44.50;;;;;;;;5076902;28;45256;-74
2022/01/18 00:39:46;;;;;;;;;55.75;43.00;;;;;;;;5064482;28;45448;-74
2022/01/18 00:42:11;;;;;;;;;53.75;42.25;;;;;;;;5075516;28;46304;-73
2022/01/18 00:44:36;;;;;;;;;57.00;45.00;;;;;;;;5078390;28;46416;-73
2022/01/18 00:47:02;;;;;;;;;58.25;44.75;;;;;;;;5077256;27;45360;-73
2022/01/18 00:49:27;;;;;;;;;57.00;45.00;;;;;;;;5074271;28;45410;-73
2022/01/18 00:51:56;;;;;;;;;57.00;45.50;;;;;;;;5076397;28;46282;-73
2022/01/18 00:54:25;;;;;;;;;54.50;42.75;;;;;;;;5076713;28;45346;-73
2022/01/18 00:56:52;;;;;;;;;56.00;42.25;;;;;;;;5078197;28;45310;-73
2022/01/18 00:59:18;;;;;;;;;54.25;41.75;;;;;;;;5072802;27;45422;-73
2022/01/18 01:01:43;;;;;;;;;59.75;44.00;;;;;;;;5080230;27;45435;-73
2022/01/18 01:04:08;;;;;;;;;59.50;43.75;;;;;;;;5068476;27;45494;-73
2022/01/18 01:06:34;;;;;;;;;53.50;43.50;;;;;;;;5076452;28;45493;-73
2022/01/18 01:09:00;;;;;;;;;53.00;42.75;;;;;;;;5058958;28;45248;-73
2022/01/18 01:11:25;;;;;;;;;52.75;41.00;;;;;;;;5076900;27;46295;-73
2022/01/18 01:13:52;;;;;;;;;52.75;42.75;;;;;;;;5076954;28;45307;-73
2022/01/18 01:45:05;;;;;;;;;53.75;40.25;;;;;;;;5077210;27;45748;-74
2022/01/18 01:47:35;;;;;;;;;53.50;40.50;;;;;;;;5075449;27;45278;-73
2022/01/18 01:50:02;;;;;;;;;53.75;40.00;;;;;;;;5073980;28;45556;-73
2022/01/18 01:52:27;;;;;;;;;49.25;40.25;;;;;;;;5074164;28;47127;-74
2022/01/18 01:54:54;;;;;;;;;54.50;40.00;;;;;;;;5073887;28;45490;-73
2022/01/18 01:57:19;;;;;;;;;47.75;38.25;;;;;;;;5087269;27;45363;-73
2022/01/18 01:59:45;;;;;;;;;48.00;40.25;;;;;;;;5077713;28;45609;-73
2022/01/18 02:02:10;;;;;;;;;46.00;38.25;;;;;;;;5073642;27;46335;-73
2022/01/18 02:04:35;;;;;;;;;49.25;38.25;;;;;;;;5075111;28;45415;-74
2022/01/18 02:07:00;;;;;;;;;51.50;40.25;;;;;;;;5072864;28;45462;-73
2022/01/18 02:09:26;;;;;;;;;46.25;38.25;;;;;;;;5074943;28;45257;-73
2022/01/18 02:11:51;;;;;;;;;48.00;36.75;;;;;;;;5080709;27;46479;-73
2022/01/18 02:14:21;;;;;;;;;47.25;38.00;;;;;;;;5073752;28;45384;-74
2022/01/18 02:22:14;;;;;;;;;50.00;38.00;;;;;;;;5075684;28;45363;-73
2022/01/18 02:24:39;;;;;;;;;49.75;36.25;;;;;;;;5057271;28;45493;-74
2022/01/18 02:27:04;;;;;;;;;49.25;39.25;;;;;;;;5075401;27;45518;-74
2022/01/18 02:29:29;;;;;;;;;45.50;35.00;;;;;;;;5076615;27;45603;-73
2022/01/18 02:31:55;;;;;;;;;52.00;41.25;;;;;;;;5074470;28;46421;-74
2022/01/18 02:34:21;;;;;;;;;48.00;39.50;;;;;;;;5072505;28;45486;-73
2022/01/18 02:36:46;;;;;;;;;47.25;37.25;;;;;;;;5074482;28;45883;-73
2022/01/18 02:39:13;;;;;;;;;47.75;36.75;;;;;;;;5075244;27;45561;-73
2022/01/18 02:41:38;;;;;;;;;47.25;37.75;;;;;;;;5075320;28;47096;-73
2022/01/18 02:44:12;;;;;;;;;48.00;38.50;;;;;;;;5079579;27;45284;-73
2022/01/18 02:46:38;;;;;;;;;44.75;36.00;;;;;;;;5080138;27;45513;-73
2022/01/18 02:49:04;;;;;;;;;48.25;35.00;;;;;;;;5074428;27;45469;-73
2022/01/18 02:51:29;;;;;;;;;45.00;37.00;;;;;;;;5074107;27;45468;-73
2022/01/18 02:53:58;;;;;;;;;46.25;37.00;;;;;;;;5076249;28;45389;-73
2022/01/18 02:56:24;;;;;;;;;45.75;35.50;;;;;;;;5075319;28;45346;-73
2022/01/18 02:58:50;;;;;;;;;42.50;34.75;;;;;;;;5075674;27;45548;-74
2022/01/18 03:03:58;;;;;;;;;47.50;34.75;;;;;;;;5071767;28;45318;-73
2022/01/18 03:06:24;;;;;;;;;50.25;38.50;;;;;;;;5072848;28;45331;-73
2022/01/18 03:08:49;;;;;;;;;40.25;33.75;;;;;;;;5076880;28;45311;-73
2022/01/18 03:11:14;;;;;;;;;47.00;36.25;;;;;;;;5073104;27;46212;-74
2022/01/18 03:13:39;;;;;;;;;40.75;33.00;;;;;;;;5077950;27;51385;-73
2022/01/18 03:16:05;;;;;;;;;49.50;35.75;;;;;;;;5072681;28;45532;-73
2022/01/18 03:18:30;;;;;;;;;39.75;32.50;;;;;;;;5072827;28;45464;-74
2022/01/18 03:20:56;;;;;;;;;44.25;34.50;;;;;;;;5086240;27;45381;-73
2022/01/18 03:23:22;;;;;;;;;44.50;34.25;;;;;;;;5073494;28;45449;-73
2022/01/18 03:25:59;;;;;;;;;43.00;34.00;;;;;;;;5072625;27;45362;-73
2022/01/18 03:28:25;;;;;;;;;45.00;36.25;;;;;;;;5075188;28;45286;-73
2022/01/18 03:30:54;;;;;;;;;40.00;32.75;;;;;;;;5074371;27;46033;-73
2022/01/18 03:33:20;;;;;;;;;39.50;33.25;;;;;;;;5056058;28;45828;-73
2022/01/18 03:35:47;;;;;;;;;40.50;35.00;;;;;;;;5075639;28;45394;-73
2022/01/18 03:38:13;;;;;;;;;39.00;32.50;;;;;;;;5072025;28;45327;-73
2022/01/18 03:40:38;;;;;;;;;40.50;35.00;;;;;;;;5072085;28;46093;-73
2022/01/18 03:43:06;;;;;;;;;43.00;35.50;;;;;;;;5072114;27;45628;-73
2022/01/18 03:45:39;;;;;;;;;39.50;34.75;;;;;;;;5072253;28;45420;-73
2022/01/18 03:48:07;;;;;;;;;37.75;33.00;;;;;;;;5073469;28;45381;-73
2022/01/18 03:50:32;;;;;;;;;38.50;34.00;;;;;;;;5073643;27;46295;-73
2022/01/18 03:52:57;;;;;;;;;41.75;34.25;;;;;;;;5071825;28;45574;-73
2022/01/18 03:55:23;;;;;;;;;43.50;33.50;;;;;;;;5073581;28;45479;-73
2022/01/18 03:57:48;;;;;;;;;44.00;34.75;;;;;;;;5073313;28;45456;-73
2022/01/18 04:00:18;;;;;;;;;39.25;33.25;;;;;;;;5073088;28;46958;-73
2022/01/18 04:02:43;;;;;;;;;39.25;32.25;;;;;;;;5075061;27;45412;-73
2022/01/18 04:05:09;;;;;;;;;38.25;33.25;;;;;;;;5071964;28;45700;-73
2022/01/18 04:07:34;;;;;;;;;43.50;35.25;;;;;;;;5076284;27;45585;-73
2022/01/18 04:09:59;;;;;;;;;38.00;31.50;;;;;;;;5073854;28;45964;-73
2022/01/18 04:12:25;;;;;;;;;40.25;33.25;;;;;;;;5080900;27;45352;-73
2022/01/18 04:14:50;;;;;;;;;32.50;27.50;;;;;;;;5079209;28;45441;-73
2022/01/18 04:27:48;;;;;;;;;41.50;33.00;;;;;;;;5076875;27;45387;-73
2022/01/18 04:30:13;;;;;;;;;39.00;32.25;;;;;;;;5075326;27;47277;-73
2022/01/18 04:32:38;;;;;;;;;38.75;31.00;;;;;;;;5083791;27;45525;-74
2022/01/18 04:35:04;;;;;;;;;42.00;32.25;;;;;;;;5078074;27;45347;-74
2022/01/18 04:37:29;;;;;;;;;32.25;30.50;;;;;;;;5076401;27;45437;-73
2022/01/18 04:39:54;;;;;;;;;31.50;29.75;;;;;;;;5076197;27;46333;-73
2022/01/18 04:42:38;;;;;;;;;34.50;30.00;;;;;;;;5076684;27;45530;-74
2022/01/18 04:50:31;;;;;;;;;42.00;32.25;;;;;;;;5076650;27;45356;-73
2022/01/18 04:52:56;;;;;;;;;38.50;31.50;;;;;;;;5075940;28;45209;-74
2022/01/18 04:55:22;;;;;;;;;36.50;30.25;;;;;;;;5073969;28;45214;-73
2022/01/18 04:57:53;;;;;;;;;38.50;31.25;;;;;;;;5065446;27;45341;-74
2022/01/18 05:00:22;;;;;;;;;36.50;30.00;;;;;;;;5058940;28;46090;-74
2022/01/18 05:02:47;;;;;;;;;28.50;27.75;;;;;;;;5073731;27;45512;-74
2022/01/18 05:05:22;;;;;;;;;34.00;29.00;;;;;;;;5074153;27;45415;-74
2022/01/18 05:07:48;;;;;;;;;34.25;28.00;;;;;;;;5074774;27;45486;-74
2022/01/18 05:10:14;;;;;;;;;35.25;31.00;;;;;;;;5074483;27;46192;-73
2022/01/18 05:12:46;;;;;;;;;34.75;31.00;;;;;;;;5076043;28;45531;-73
2022/01/18 05:23:05;;;;;;;;;31.50;26.75;;;;;;;;5075432;27;46222;-73
2022/01/18 05:25:30;;;;;;;;;30.00;27.50;;;;;;;;5076176;28;45481;-73
2022/01/18 05:27:56;;;;;;;;;31.50;27.50;;;;;;;;5075381;27;45525;-74
2022/01/18 05:30:22;;;;;;;;;31.75;29.25;;;;;;;;5075737;28;47263;-74
2022/01/18 05:32:47;;;;;;;;;33.00;29.75;;;;;;;;5077570;27;45406;-74
2022/01/18 05:35:12;;;;;;;;;34.25;29.25;;;;;;;;5075950;28;45473;-74
2022/01/18 05:37:37;;;;;;;;;35.00;29.25;;;;;;;;5074047;27;45467;-74
2022/01/18 05:40:03;;;;;;;;;38.25;29.75;;;;;;;;5076350;28;46291;-74
2022/01/18 05:42:28;;;;;;;;;35.75;28.25;;;;;;;;5075898;28;45337;-74
2022/01/18 05:44:53;;;;;;;;;33.25;30.25;;;;;;;;5088545;27;45404;-74
2022/01/18 05:47:18;;;;;;;;;39.00;29.25;;;;;;;;5073812;28;45428;-74
2022/01/18 05:49:43;;;;;;;;;30.75;27.00;;;;;;;;5077857;27;46283;-74
2022/01/18 05:52:09;;;;;;;;;29.25;26.00;;;;;;;;5079631;27;45390;-74
2022/01/18 05:54:34;;;;;;;;;28.25;23.50;;;;;;;;5075657;27;45498;-73
2022/01/18 05:56:59;;;;;;;;;30.75;28.25;;;;;;;;5076411;27;45491;-74
2022/01/18 05:59:34;;;;;;;;;29.00;24.00;;;;;;;;5077364;27;47096;-74
2022/01/18 06:02:02;;;;;;;;;26.50;23.00;;;;;;;;5074755;27;45462;-74
2022/01/18 06:07:12;;;;;;;;;25.00;23.25;;;;;;;;5074094;27;45588;-74
2022/01/18 06:09:37;;;;;;;;;25.25;25.00;;;;;;;;5075257;27;47499;-75
2022/01/18 06:12:03;;;;;;;;;27.75;25.25;;;;;;;;5075787;28;45280;-75
2022/01/18 06:14:28;;;;;;;;;31.25;27.25;;;;;;;;5085135;27;45375;-74
2022/01/18 06:16:53;;;;;;;;;24.75;24.25;;;;;;;;5071402;27;45639;-74
2022/01/18 06:19:19;;;;;;;;;29.00;25.75;;;;;;;;5053586;28;46068;-83
2022/01/18 06:21:44;;;;;;;;;22.00;22.00;;;;;;;;5076358;27;45635;-73
2022/01/18 06:24:11;;;;;;;;;25.00;23.00;;;;;;;;5075780;27;45412;-72
2022/01/18 06:26:37;;;;;;;;;33.25;27.75;;;;;;;;5079069;27;45391;-71
2022/01/18 06:29:02;;;;;;;;;22.00;21.00;;;;;;;;5067010;28;45435;-72
2022/01/18 06:31:28;;;;;;;;;23.25;21.25;;;;;;;;5063754;28;45537;-72
2022/01/18 06:33:53;;;;;;;;;22.75;21.75;;;;;;;;5074721;27;45532;-72
2022/01/18 06:36:18;;;;;;;;;23.50;20.25;;;;;;;;5073189;28;45555;-72
2022/01/18 06:38:43;;;;;;;;;23.50;20.75;;;;;;;;5072322;28;45507;-72
2022/01/18 06:41:09;;;;;;;;;24.75;20.25;;;;;;;;5070375;28;45454;-72
2022/01/18 06:43:34;;;;;;;;;28.00;22.50;;;;;;;;5071159;28;45341;-70
2022/01/18 06:46:00;;;;;;;;;19.25;17.75;;;;;;;;5074231;28;45457;-72
2022/01/18 06:48:25;;;;;;;;;22.00;20.25;;;;;;;;5073830;27;46035;-72
2022/01/18 06:50:50;;;;;;;;;21.75;19.75;;;;;;;;5076019;28;45463;-72
2022/01/18 06:53:15;;;;;;;;;21.75;18.00;;;;;;;;5073128;27;45331;-72
2022/01/18 06:55:41;;;;;;;;;20.00;19.00;;;;;;;;5079167;27;45450;-72
2022/01/18 06:58:06;;;;;;;;;20.00;19.00;;;;;;;;5072201;27;46327;-72
2022/01/18 07:00:31;;;;;;;;;21.75;19.50;;;;;;;;5074399;27;45462;-74
2022/01/18 07:02:56;;;;;;;;;27.00;18.50;;;;;;;;5075592;28;45472;-72
2022/01/18 07:05:22;;;;;;;;;24.00;20.25;;;;;;;;5073940;27;45612;-69
2022/01/18 07:07:47;;;;;;;;;24.25;18.75;;;;;;;;5072941;27;46122;-72
2022/01/18 07:10:13;;;;;;;;;21.75;18.75;;;;;;;;5072448;27;45540;-72
2022/01/18 07:12:38;;;;;;;;;20.75;20.00;;;;;;;;5076030;27;45299;-72
2022/01/18 07:15:06;;;;;;;;;19.25;18.00;;;;;;;;5076805;27;45354;-72
2022/01/18 07:17:32;;;;;;;;;18.75;17.25;;;;;;;;5074122;27;46383;-73
2022/01/18 07:19:57;;;;;;;;;19.25;16.75;;;;;;;;5072900;28;45303;-72
2022/01/18 07:22:22;;;;;;;;;19.00;16.50;;;;;;;;5074011;27;45383;-72
2022/01/18 07:24:49;;;;;;;;;20.25;18.25;;;;;;;;5072898;27;45415;-72
2022/01/18 07:27:15;;;;;;;;;19.00;16.25;;;;;;;;5077853;27;46262;-73
2022/01/18 07:29:41;;;;;;;;;21.00;15.50;;;;;;;;5075477;27;45355;-72
2022/01/18 07:32:07;;;;;;;;;17.25;14.75;;;;;;;;5073825;28;45479;-73
2022/01/18 07:34:34;;;;;;;;;19.25;16.75;;;;;;;;5073719;28;45599;-73
2022/01/18 07:36:59;;;;;;;;;20.25;16.75;;;;;;;;5073432;28;47225;-72
2022/01/18 07:39:25;;;;;;;;;16.50;15.25;;;;;;;;5075514;27;45319;-72
2022/01/18 07:41:50;;;;;;;;;21.25;17.00;;;;;;;;5080020;27;45335;-72
2022/01/18 07:44:15;;;;;;;;;19.25;19.00;;;;;;;;5074734;27;45425;-72
2022/01/18 07:46:40;;;;;;;;;20.00;16.75;;;;;;;;5073604;27;46960;-72
2022/01/18 07:49:06;;;;;;;;;21.00;17.25;;;;;;;;5051107;28;45531;-72
2022/01/18 07:51:31;;;;;;;;;18.25;17.50;;;;;;;;5059517;28;45513;-72
2022/01/18 07:53:56;;;;;;;;;18.25;17.50;;;;;;;;5075050;28;45314;-72
2022/01/18 07:56:21;;;;;;;;;14.75;13.25;;;;;;;;5074069;28;46047;-72
2022/01/18 07:58:46;;;;;;;;;15.75;14.25;;;;;;;;5072302;27;45514;-72
2022/01/18 08:01:12;;;;;;;;;16.25;15.50;;;;;;;;5072754;28;45260;-72
2022/01/18 08:03:37;;;;;;;;;16.00;15.50;;;;;;;;5087731;27;45328;-72
2022/01/18 08:06:02;;;;;;;;;17.25;16.50;;;;;;;;5074228;28;45469;-72
2022/01/18 08:08:27;;;;;;;;;19.50;15.50;;;;;;;;5075384;28;45419;-72
2022/01/18 08:10:53;;;;;;;;;16.75;13.25;;;;;;;;5073403;28;45503;-72
2022/01/18 08:13:22;;;;;;;;;17.25;17.25;;;;;;;;5073246;28;45568;-72
2022/01/18 08:15:57;;;;;;;;;16.25;14.25;;;;;;;;5073182;28;47550;-72
2022/01/18 08:18:22;;;;;;;;;17.50;16.00;;;;;;;;5061396;28;46230;-72
2022/01/18 08:20:47;;;;;;;;;20.00;15.00;;;;;;;;5075542;27;45327;-72
2022/01/18 08:23:12;;;;;;;;;18.75;17.25;;;;;;;;5076326;27;45406;-72
2022/01/18 08:25:39;;;;;;;;;16.00;15.50;;;;;;;;5074077;27;46229;-72
2022/01/18 08:28:04;;;;;;;;;18.25;14.50;;;;;;;;5074502;28;45267;-72
2022/01/18 08:30:29;;;;;;;;;19.75;16.00;;;;;;;;5075672;27;45524;-72
2022/01/18 08:32:55;;;;;;;;;12.50;10.25;;;;;;;;5078386;27;45461;-72
2022/01/18 08:35:23;;;;;;;;;15.25;14.50;;;;;;;;5073859;28;46235;-72
2022/01/18 08:37:48;;;;;;;;;15.75;15.50;;;;;;;;5073162;27;45576;-72
2022/01/18 08:40:14;;;;;;;;;18.25;15.00;;;;;;;;5070463;28;45553;-72
2022/01/18 08:42:39;;;;;;;;;17.50;15.25;;;;;;;;5073177;28;45367;-72
2022/01/18 08:45:06;;;;;;;;;17.75;14.25;;;;;;;;5085160;27;46150;-72
2022/01/18 08:47:31;;;;;;;;;17.75;15.00;;;;;;;;5072747;28;45410;-72
2022/01/18 08:49:57;;;;;;;;;15.00;13.50;;;;;;;;5072632;28;45331;-72
2022/01/18 08:52:22;;;;;;;;;15.50;15.00;;;;;;;;5073287;27;45582;-72
2022/01/18 08:54:48;;;;;;;;;13.25;10.50;;;;;;;;5074041;28;47157;-72
2022/01/18 08:57:14;;;;;;;;;12.75;12.75;;;;;;;;5077085;28;45419;-72
2022/01/18 08:59:40;;;;;;;;;17.25;14.25;;;;;;;;5078497;28;45514;-72
2022/01/18 09:02:06;;;;;;;;;15.50;15.00;;;;;;;;5076232;28;45295;-73
2022/01/18 09:04:33;;;;;;;;;15.00;13.50;;;;;;;;5075920;28;46238;-72
2022/01/18 09:07:02;;;;;;;;;13.75;12.75;;;;;;;;5075816;27;45441;-72
2022/01/18 09:09:27;;;;;;;;;12.75;12.75;;;;;;;;5078496;27;45520;-72
2022/01/18 09:11:53;;;;;;;;;12.75;11.25;;;;;;;;5060100;28;45279;-72
2022/01/18 09:14:18;;;;;;;;;11.50;11.00;;;;;;;;5077664;28;46093;-72
2022/01/18 09:16:44;;;;;;;;;16.25;16.25;;;;;;;;5080418;27;45473;-72
2022/01/18 09:19:09;;;;;;;;;15.50;13.50;;;;;;;;5076334;27;45544;-72
2022/01/18 09:21:34;;;;;;;;;13.75;13.75;;;;;;;;5076315;28;45589;-72
2022/01/18 09:24:00;;;;;;;;;15.75;12.75;;;;;;;;5076269;28;46126;-72
2022/01/18 09:26:26;;;;;;;;;15.75;12.50;;;;;;;;5075797;28;45408;-72
2022/01/18 09:28:51;;;;;;;;;16.75;15.75;;;;;;;;5075407;28;45857;-73
2022/01/18 09:31:17;;;;;;;;;16.50;13.25;;;;;;;;5074294;28;45544;-72
2022/01/18 09:33:42;;;;;;;;;15.00;14.00;;;;;;;;5074335;28;46361;-71
2022/01/18 09:36:07;;;;;;;;;11.25;11.25;;;;;;;;5076257;28;45276;-72
2022/01/18 09:38:32;;;;;;;;;13.25;11.75;;;;;;;;5075438;28;45466;-73
2022/01/18 09:40:59;;;;;;;;;17.75;12.00;;;;;;;;5075255;28;45418;-72
2022/01/18 09:43:27;;;;;;;;;13.00;12.75;;;;;;;;5074034;28;46094;-73
2022/01/18 09:45:52;;;;;;;;;12.00;12.00;;;;;;;;5074274;28;45426;-72
2022/01/18 09:48:17;;;;;;;;;12.00;12.00;;;;;;;;5074559;28;45545;-72
2022/01/18 09:50:44;;;;;;;;;14.75;14.75;;;;;;;;5061669;28;45342;-72
2022/01/18 09:53:11;;;;;;;;;12.00;10.50;;;;;;;;5075269;28;45533;-72
2022/01/18 09:55:37;;;;;;;;;12.75;12.50;;;;;;;;5076867;27;45451;-72
2022/01/18 09:58:06;;;;;;;;;12.25;12.25;;;;;;;;5076426;28;45356;-72
2022/01/18 10:00:32;;;;;;;;;16.25;12.75;;;;;;;;5076612;27;45363;-72
2022/01/18 10:02:58;;;;;;;;;17.75;14.00;;;;;;;;5076430;28;47207;-72
2022/01/18 10:05:28;;;;;;;;;13.75;13.75;;;;;;;;5076113;28;45381;-72
2022/01/18 10:07:56;;;;;;;;;17.75;15.50;;;;;;;;5074624;28;45492;-72
2022/01/18 10:10:33;;;;;;;;;13.00;11.00;;;;;;;;5075047;28;45492;-72
2022/01/18 10:12:58;;;;;;;;;14.50;11.75;;;;;;;;5055193;28;46155;-72
2022/01/18 10:15:23;;;;;;;;;11.50;10.00;;;;;;;;5074597;28;45517;-72
2022/01/18 10:17:48;;;;;;;;;17.25;14.50;;;;;;;;5077627;28;45453;-72
2022/01/18 10:20:19;;;;;;;;;15.25;13.00;;;;;;;;5074856;27;45658;-72
2022/01/18 10:22:48;;;;;;;;;13.75;12.25;;;;;;;;5074663;28;47328;-72
2022/01/18 10:25:18;;;;;;;;;12.50;10.00;;;;;;;;5074773;28;45462;-72
2022/01/18 10:27:45;;;;;;;;;12.75;11.75;;;;;;;;5075029;28;45493;-72
2022/01/18 10:30:15;;;;;;;;;13.25;12.00;;;;;;;;5074509;28;45315;-72
2022/01/18 10:32:42;;;;;;;;;11.00;10.00;;;;;;;;5076627;28;47168;-72
2022/01/18 10:35:09;;;;;;;;;11.75;11.50;;;;;;;;5073008;28;45489;-72
2022/01/18 10:37:37;;;;;;;;;12.00;10.25;;;;;;;;5074068;28;45407;-72
2022/01/18 10:40:02;;;;;;;;;12.00;11.50;;;;;;;;5074990;27;45571;-72
2022/01/18 10:42:36;;;;;;;;;11.50;10.75;;;;;;;;5060871;28;46141;-72
2022/01/18 10:45:04;;;;;;;;;12.50;10.75;;;;;;;;5087905;27;45439;-72
2022/01/18 10:47:29;;;;;;;;;14.50;12.75;;;;;;;;5078042;27;45354;-72
2022/01/18 10:49:55;;;;;;;;;12.50;11.25;;;;;;;;5078334;27;45532;-72
2022/01/18 10:52:22;;;;;;;;;11.25;11.25;;;;;;;;5073138;28;46232;-72
2022/01/18 10:54:48;;;;;;;;;10.75;8.75;;;;;;;;5071862;28;45363;-72
2022/01/18 10:57:19;;;;;;;;;13.00;13.00;;;;;;;;5074141;28;45343;-72
2022/01/18 10:59:44;;;;;;;;;11.75;11.75;;;;;;;;5075667;28;45402;-72
2022/01/18 11:02:16;;;;;;;;;13.75;11.50;;;;;;;;5071757;28;46018;-72
2022/01/18 11:04:47;;;;;;;;;9.00;9.00;;;;;;;;5074075;28;45567;-72
2022/01/18 11:07:12;;;;;;;;;14.00;10.50;;;;;;;;5073245;28;45316;-72
2022/01/18 11:09:38;;;;;;;;;13.75;12.00;;;;;;;;5074578;28;45530;-72
2022/01/18 11:12:05;;;;;;;;;11.50;9.75;;;;;;;;5074852;27;45843;-73
2022/01/18 11:14:32;;;;;;;;;12.50;12.50;;;;;;;;5074601;27;45647;-72
2022/01/18 11:16:58;;;;;;;;;12.75;10.25;;;;;;;;5073020;28;45471;-72
2022/01/18 11:21:50;;;;;;;;;10.25;7.75;;;;;;;;5074031;28;46132;-72
2022/01/18 11:24:16;;;;;;;;;10.25;10.25;;;;;;;;5074002;28;45283;-72
2022/01/18 11:26:43;;;;;;;;;14.00;11.50;;;;;;;;5075681;28;45287;-72
2022/01/18 11:29:09;;;;;;;;;9.75;8.75;;;;;;;;5074982;27;45590;-72
2022/01/18 11:31:35;;;;;;;;;8.00;8.00;;;;;;;;5074821;27;46117;-72
2022/01/18 11:34:00;;;;;;;;;10.50;10.50;;;;;;;;5067467;28;45479;-73
2022/01/18 11:36:29;;;;;;;;;10.25;10.25;;;;;;;;5071945;28;45842;-72
2022/01/18 11:38:57;;;;;;;;;10.00;8.00;;;;;;;;5075345;28;45386;-72
2022/01/18 11:41:27;;;;;;;;;11.50;9.25;;;;;;;;5075204;27;45765;-72
2022/01/18 11:43:55;;;;;;;;;11.75;9.00;;;;;;;;5076776;27;45414;-72
2022/01/18 11:46:37;;;;;;;;;13.25;11.75;;;;;;;;5076420;27;45378;-72
2022/01/18 11:49:02;;;;;;;;;11.75;10.00;;;;;;;;5073430;28;45509;-72
2022/01/18 11:51:43;;;;;;;;;11.25;8.75;;;;;;;;5072451;28;46920;-72
2022/01/18 11:54:29;;;;;;;;;12.50;10.25;;;;;;;;5074389;27;48311;-71
2022/01/18 11:56:55;;;;;;;;;10.25;10.25;;;;;;;;5071925;28;45564;-71
2022/01/18 11:59:21;;;;;;;;;11.75;10.00;;;;;;;;5071361;27;45295;-73
2022/01/18 12:01:52;;;;;;;;;10.00;10.00;;;;;;;;5053996;28;46107;-72
2022/01/18 12:04:35;;;;;;;;;10.75;10.75;;;;;;;;5071542;28;45510;-72
2022/01/18 12:07:01;;;;;;;;;9.75;9.50;;;;;;;;5073146;28;45340;-72
2022/01/18 12:09:39;;;;;;;;;9.25;9.25;;;;;;;;5088514;27;45394;-72
2022/01/18 12:12:05;;;;;;;;;10.75;9.00;;;;;;;;5075203;28;46257;-72
2022/01/18 12:14:33;;;;;;;;;8.75;8.25;;;;;;;;5086246;27;45394;-73
2022/01/18 12:17:11;;;;;;;;;11.00;9.00;;;;;;;;5077206;27;45386;-73
2022/01/18 12:19:47;;;;;;;;;13.50;12.50;;;;;;;;5074514;27;45556;-72
2022/01/18 12:22:13;;;;;;;;;11.00;11.00;;;;;;;;5073033;27;45408;-71
2022/01/18 12:24:43;;;;;;;;;14.75;10.50;;;;;;;;5073480;28;45402;-71
2022/01/18 12:27:27;;;;;;;;;9.00;8.00;;;;;;;;5073553;27;45225;-72
2022/01/18 12:33:24;;;;;;;;;10.25;9.75;;;;;;;;5065562;28;45347;-73
2022/01/18 12:35:49;;;;;;;;;10.50;6.75;;;;;;;;5074661;28;45490;-72
2022/01/18 12:38:21;;;;;;;;;11.00;8.25;;;;;;;;5076521;28;45223;-72
2022/01/18 12:40:46;;;;;;;;;10.00;10.00;;;;;;;;5076816;27;45291;-73
2022/01/18 12:45:39;;;;;;;;;10.25;9.00;;;;;;;;5088284;27;45254;-72
2022/01/18 12:48:09;;;;;;;;;9.00;8.50;;;;;;;;5076541;27;45401;-72
2022/01/18 12:50:34;;;;;;;;;12.75;11.25;;;;;;;;5079198;27;45433;-72
2022/01/18 12:53:07;;;;;;;;;9.75;9.75;;;;;;;;5076275;27;47172;-72
2022/01/18 12:55:47;;;;;;;;;11.00;9.00;;;;;;;;5077344;28;45381;-72
2022/01/18 12:58:18;;;;;;;;;9.00;9.00;;;;;;;;5084007;27;45572;-72
2022/01/18 13:00:53;;;;;;;;;11.75;10.00;;;;;;;;5079585;27;45477;-72
2022/01/18 13:03:26;;;;;;;;;8.25;8.25;;;;;;;;5078971;27;46349;-72
2022/01/18 13:05:52;;;;;;;;;8.75;8.75;;;;;;;;5074637;27;45451;-72
2022/01/18 13:08:19;;;;;;;;;8.00;8.00;;;;;;;;5079252;27;45587;-72
2022/01/18 13:10:45;;;;;;;;;10.25;8.50;;;;;;;;5078227;27;45437;-71
2022/01/18 13:13:13;;;;;;;;;7.00;6.00;;;;;;;;5074447;27;46008;-72
2022/01/18 13:15:48;;;;;;;;;8.00;7.00;;;;;;;;5085873;27;45504;-73
2022/01/18 13:23:54;;;;;;;;;5.75;5.00;;;;;;;;5077574;28;45901;-72
2022/01/18 13:26:29;;;;;;;;;8.50;7.00;;;;;;;;5076420;27;45349;-72
2022/01/18 13:28:55;;;;;;;;;7.25;6.50;;;;;;;;5082598;27;45508;-72
2022/01/18 13:31:21;;;;;;;;;8.75;7.50;;;;;;;;5082175;27;45354;-72
2022/01/18 13:33:50;;;;;;;;;9.25;7.75;;;;;;;;5076322;27;46109;-72
2022/01/18 13:36:15;;;;;;;;;8.50;7.00;;;;;;;;5076317;27;45312;-71
2022/01/18 13:38:41;;;;;;;;;8.25;7.75;;;;;;;;5078166;28;45378;-72
2022/01/18 13:41:07;;;;;;;;;10.00;8.50;;;;;;;;5074401;27;45620;-72
2022/01/18 13:43:33;;;;;;;;;7.75;7.50;;;;;;;;5076259;27;46671;-72
2022/01/18 13:45:58;;;;;;;;;8.00;8.00;;;;;;;;5075378;27;45478;-72
2022/01/18 13:48:31;;;;;;;;;8.00;6.25;;;;;;;;5074310;27;45265;-72
2022/01/18 13:50:57;;;;;;;;;7.00;7.00;;;;;;;;5084415;27;45334;-72
2022/01/18 13:53:26;;;;;;;;;8.00;8.00;;;;;;;;5075926;28;45850;-72
2022/01/18 13:55:53;;;;;;;;;7.00;6.25;;;;;;;;5075124;28;45549;-72
2022/01/18 13:58:19;;;;;;;;;8.50;7.00;;;;;;;;5059338;27;45353;-72
2022/01/18 14:00:45;;;;;;;;;8.00;7.00;;;;;;;;5074088;27;45553;-72
2022/01/18 14:03:10;;;;;;;;;7.50;7.50;;;;;;;;5075094;27;45421;-72
2022/01/18 14:05:46;;;;;;;;;6.25;6.25;;;;;;;;5079799;27;45419;-71
2022/01/18 14:08:11;;;;;;;;;6.50;6.50;;;;;;;;5074946;27;45694;-72
2022/01/18 14:10:37;;;;;;;;;6.25;6.25;;;;;;;;5075470;27;45518;-70
2022/01/18 14:13:02;;;;;;;;;7.50;7.50;;;;;;;;5074719;28;45568;-73
2022/01/18 14:15:34;;;;;;;;;8.50;6.50;;;;;;;;5073751;27;45983;-71
2022/01/18 14:18:01;;;;;;;;;11.00;7.00;;;;;;;;5075827;27;45385;-72
2022/01/18 14:20:30;;;;;;;;;8.50;6.00;;;;;;;;5061015;28;45327;-72
2022/01/18 14:22:56;;;;;;;;;10.75;8.00;;;;;;;;5075815;27;46180;-71
2022/01/18 14:25:27;;;;;;;;;8.00;6.50;;;;;;;;5074655;28;45331;-72
2022/01/18 14:27:52;;;;;;;;;9.25;7.25;;;;;;;;5074606;28;45636;-72
2022/01/18 14:30:24;;;;;;;;;9.00;6.00;;;;;;;;5075716;27;45330;-72
2022/01/18 14:32:50;;;;;;;;;9.25;7.75;;;;;;;;5072465;27;47131;-72
2022/01/18 14:35:18;;;;;;;;;8.50;7.00;;;;;;;;5075781;27;45461;-72
2022/01/18 14:37:48;;;;;;;;;8.25;6.25;;;;;;;;5073641;28;45406;-72
2022/01/18 14:40:13;;;;;;;;;5.00;5.00;;;;;;;;5074907;27;45554;-71
2022/01/18 14:42:48;;;;;;;;;6.50;6.50;;;;;;;;5079647;27;45462;-72
2022/01/18 14:47:40;;;;;;;;;7.25;7.25;;;;;;;;5075651;28;45540;-72
2022/01/18 14:50:08;;;;;;;;;9.50;7.00;;;;;;;;5072555;28;45468;-72
2022/01/18 14:52:33;;;;;;;;;7.00;6.00;;;;;;;;5073674;28;46332;-72
2022/01/18 14:54:58;;;;;;;;;7.50;6.25;;;;;;;;5074729;27;45398;-72
2022/01/18 14:57:24;;;;;;;;;7.00;6.00;;;;;;;;5074305;27;45301;-72
2022/01/18 14:59:51;;;;;;;;;6.25;6.25;;;;;;;;5073535;28;45464;-72
2022/01/18 15:02:16;;;;;;;;;7.50;5.00;;;;;;;;5076881;27;46972;-71
2022/01/18 15:04:41;;;;;;;;;6.00;5.75;;;;;;;;5079465;27;45430;-71
2022/01/18 15:07:07;;;;;;;;;7.75;7.00;;;;;;;;5072064;28;45483;-72
2022/01/18 15:09:33;;;;;;;;;8.00;7.00;;;;;;;;5076856;27;45388;-71
2022/01/18 15:11:58;;;;;;;;;7.00;6.75;;;;;;;;5076260;27;46078;-72
2022/01/18 15:14:24;;;;;;;;;6.00;5.00;;;;;;;;5082655;27;45397;-72
2022/01/18 15:16:49;;;;;;;;;5.50;5.50;;;;;;;;5081124;27;45371;-72
2022/01/18 15:19:15;;;;;;;;;6.25;6.25;;;;;;;;5072244;27;45471;-72
2022/01/18 15:21:40;;;;;;;;;7.50;6.50;;;;;;;;5073291;28;45356;-72
2022/01/18 15:24:05;;;;;;;;;7.00;7.00;;;;;;;;5079725;27;45423;-72
2022/01/18 15:26:31;;;;;;;;;9.50;8.00;;;;;;;;5075972;28;45311;-72
2022/01/18 15:28:56;;;;;;;;;9.25;7.25;;;;;;;;5065484;27;45663;-72
2022/01/18 15:31:21;;;;;;;;;6.00;6.00;;;;;;;;5082070;27;46981;-72
2022/01/18 15:33:46;;;;;;;;;5.00;5.00;;;;;;;;5076227;27;45593;-72
2022/01/18 15:36:11;;;;;;;;;5.25;5.25;;;;;;;;5075648;27;45316;-72
2022/01/18 15:38:37;;;;;;;;;6.00;6.00;;;;;;;;5076381;28;45418;-72
2022/01/18 15:41:02;;;;;;;;;4.25;4.25;;;;;;;;5073663;28;46182;-72
2022/01/18 15:43:27;;;;;;;;;5.25;5.00;;;;;;;;5078252;27;45328;-72
2022/01/18 15:45:52;;;;;;;;;6.75;5.50;;;;;;;;5074255;28;45556;-72